Terminal Aerodrome Forecast
Issued by NWS Lake Charles, LA

Home | Current Version | Previous Version | Text Only | Print | Product List | Glossary On
Versions: 1 2 3 4 5 6 7 8 9 10 11 12 13 14 15
000
FTUS44 KLCH 260859 AAA
TAFAEX
TAF AMD
KAEX 260859Z 2609/2706 11005KT P6SM OVC004
      TEMPO 2611/2614 SCT005 SCT015
     FM261400 10005KT P6SM FEW015
     FM261900 07006KT P6SM VCTS FEW025CB SCT035
     FM270000 VRB03KT P6SM FEW050 BKN150=

USA.gov is the U.S. government's official web portal to all federal, state and local government web resources and services.